sensor_id;sensor_type;location;lat;lon;timestamp;P1;durP1;ratioP1;P2;durP2;ratioP2
46719;SDS011;32452;51.382;-0.002;2024-02-21T00:01:36;19.60;;;4.53;;
46719;SDS011;32452;51.382;-0.002;2024-02-21T00:04:21;18.80;;;3.75;;
46719;SDS011;32452;51.382;-0.002;2024-02-21T00:07:07;15.55;;;3.97;;
46719;SDS011;32452;51.382;-0.002;2024-02-21T00:09:53;18.33;;;3.88;;
46719;SDS011;32452;51.382;-0.002;2024-02-21T00:12:38;17.35;;;3.88;;
46719;SDS011;32452;51.382;-0.002;2024-02-21T00:15:24;16.75;;;3.30;;
46719;SDS011;32452;51.382;-0.002;2024-02-21T00:18:09;11.15;;;3.05;;
46719;SDS011;32452;51.382;-0.002;2024-02-21T00:20:57;15.70;;;2.90;;
46719;SDS011;32452;51.382;-0.002;2024-02-21T00:23:42;16.67;;;4.25;;
46719;SDS011;32452;51.382;-0.002;2024-02-21T00:26:35;12.93;;;3.40;;
46719;SDS011;32452;51.382;-0.002;2024-02-21T00:29:21;15.35;;;3.10;;
46719;SDS011;32452;51.382;-0.002;2024-02-21T00:32:06;20.65;;;3.22;;
46719;SDS011;32452;51.382;-0.002;2024-02-21T00:34:52;22.05;;;3.63;;
46719;SDS011;32452;51.382;-0.002;2024-02-21T00:37:37;17.80;;;4.82;;
46719;SDS011;32452;51.382;-0.002;2024-02-21T00:40:23;25.52;;;4.45;;
46719;SDS011;32452;51.382;-0.002;2024-02-21T00:43:08;14.18;;;2.90;;
46719;SDS011;32452;51.382;-0.002;2024-02-21T00:45:54;19.95;;;3.35;;
46719;SDS011;32452;51.382;-0.002;2024-02-21T00:48:40;15.55;;;2.67;;
46719;SDS011;32452;51.382;-0.002;2024-02-21T00:51:26;13.43;;;3.00;;
46719;SDS011;32452;51.382;-0.002;2024-02-21T00:54:11;18.77;;;3.22;;
46719;SDS011;32452;51.382;-0.002;2024-02-21T00:56:57;18.95;;;2.97;;
46719;SDS011;32452;51.382;-0.002;2024-02-21T00:59:42;16.85;;;3.15;;
46719;SDS011;32452;51.382;-0.002;2024-02-21T01:02:28;20.95;;;3.67;;
46719;SDS011;32452;51.382;-0.002;2024-02-21T01:05:16;13.10;;;3.05;;
46719;SDS011;32452;51.382;-0.002;2024-02-21T01:08:02;23.77;;;4.70;;
46719;SDS011;32452;51.382;-0.002;2024-02-21T01:10:48;16.27;;;3.10;;
46719;SDS011;32452;51.382;-0.002;2024-02-21T01:13:33;20.95;;;4.28;;
46719;SDS011;32452;51.382;-0.002;2024-02-21T01:16:19;17.23;;;3.00;;
46719;SDS011;32452;51.382;-0.002;2024-02-21T01:19:05;16.98;;;4.13;;
46719;SDS011;32452;51.382;-0.002;2024-02-21T01:21:50;24.85;;;3.38;;
46719;SDS011;32452;51.382;-0.002;2024-02-21T01:24:36;19.83;;;3.55;;
46719;SDS011;32452;51.382;-0.002;2024-02-21T01:27:21;17.67;;;4.15;;
46719;SDS011;32452;51.382;-0.002;2024-02-21T01:30:07;16.98;;;3.28;;
46719;SDS011;32452;51.382;-0.002;2024-02-21T01:32:54;19.42;;;2.78;;
46719;SDS011;32452;51.382;-0.002;2024-02-21T01:35:39;21.90;;;6.43;;
46719;SDS011;32452;51.382;-0.002;2024-02-21T01:38:25;14.73;;;3.83;;
46719;SDS011;32452;51.382;-0.002;2024-02-21T01:41:10;20.80;;;3.42;;
46719;SDS011;32452;51.382;-0.002;2024-02-21T01:43:56;17.17;;;3.53;;
46719;SDS011;32452;51.382;-0.002;2024-02-21T01:46:43;19.83;;;3.42;;
46719;SDS011;32452;51.382;-0.002;2024-02-21T01:49:29;19.20;;;3.22;;
46719;SDS011;32452;51.382;-0.002;2024-02-21T01:52:15;11.98;;;3.50;;
46719;SDS011;32452;51.382;-0.002;2024-02-21T01:55:02;20.17;;;3.72;;
46719;SDS011;32452;51.382;-0.002;2024-02-21T01:57:47;15.82;;;3.70;;
46719;SDS011;32452;51.382;-0.002;2024-02-21T02:00:33;21.60;;;3.67;;
46719;SDS011;32452;51.382;-0.002;2024-02-21T02:03:19;20.35;;;4.10;;
46719;SDS011;32452;51.382;-0.002;2024-02-21T02:06:05;27.33;;;3.78;;
46719;SDS011;32452;51.382;-0.002;2024-02-21T02:08:52;18.08;;;4.18;;
46719;SDS011;32452;51.382;-0.002;2024-02-21T02:11:39;20.33;;;3.92;;
46719;SDS011;32452;51.382;-0.002;2024-02-21T02:14:25;23.67;;;3.85;;
46719;SDS011;32452;51.382;-0.002;2024-02-21T02:17:10;26.77;;;4.38;;
46719;SDS011;32452;51.382;-0.002;2024-02-21T02:19:57;23.83;;;5.30;;
46719;SDS011;32452;51.382;-0.002;2024-02-21T02:22:42;21.38;;;4.60;;
46719;SDS011;32452;51.382;-0.002;2024-02-21T02:25:29;18.27;;;3.78;;
46719;SDS011;32452;51.382;-0.002;2024-02-21T02:28:14;23.58;;;5.03;;
46719;SDS011;32452;51.382;-0.002;2024-02-21T02:31:00;23.02;;;4.00;;
46719;SDS011;32452;51.382;-0.002;2024-02-21T02:33:46;27.05;;;4.57;;
46719;SDS011;32452;51.382;-0.002;2024-02-21T02:36:33;18.95;;;4.72;;
46719;SDS011;32452;51.382;-0.002;2024-02-21T02:39:19;19.17;;;3.67;;
46719;SDS011;32452;51.382;-0.002;2024-02-21T02:42:05;23.73;;;4.05;;
46719;SDS011;32452;51.382;-0.002;2024-02-21T02:44:50;18.77;;;3.85;;
46719;SDS011;32452;51.382;-0.002;2024-02-21T02:47:36;19.80;;;4.75;;
46719;SDS011;32452;51.382;-0.002;2024-02-21T02:50:22;21.30;;;4.57;;
46719;SDS011;32452;51.382;-0.002;2024-02-21T02:53:11;18.45;;;4.13;;
46719;SDS011;32452;51.382;-0.002;2024-02-21T02:55:57;19.38;;;4.70;;
46719;SDS011;32452;51.382;-0.002;2024-02-21T02:58:43;15.55;;;4.47;;
46719;SDS011;32452;51.382;-0.002;2024-02-21T03:01:29;20.38;;;3.90;;
46719;SDS011;32452;51.382;-0.002;2024-02-21T03:04:19;18.52;;;4.25;;
46719;SDS011;32452;51.382;-0.002;2024-02-21T03:07:04;16.75;;;3.60;;
46719;SDS011;32452;51.382;-0.002;2024-02-21T03:09:50;19.55;;;3.88;;
46719;SDS011;32452;51.382;-0.002;2024-02-21T03:12:37;15.43;;;3.92;;
46719;SDS011;32452;51.382;-0.002;2024-02-21T03:15:23;14.65;;;3.85;;
46719;SDS011;32452;51.382;-0.002;2024-02-21T03:18:09;18.27;;;3.58;;
46719;SDS011;32452;51.382;-0.002;2024-02-21T03:20:55;13.32;;;2.60;;
46719;SDS011;32452;51.382;-0.002;2024-02-21T03:23:41;15.52;;;3.35;;
46719;SDS011;32452;51.382;-0.002;2024-02-21T03:26:26;15.02;;;3.08;;
46719;SDS011;32452;51.382;-0.002;2024-02-21T03:29:12;16.13;;;3.53;;
46719;SDS011;32452;51.382;-0.002;2024-02-21T03:31:57;17.02;;;3.40;;
46719;SDS011;32452;51.382;-0.002;2024-02-21T03:34:43;17.35;;;2.95;;
46719;SDS011;32452;51.382;-0.002;2024-02-21T03:37:28;19.98;;;4.03;;
46719;SDS011;32452;51.382;-0.002;2024-02-21T03:40:14;23.08;;;3.58;;
46719;SDS011;32452;51.382;-0.002;2024-02-21T03:43:00;20.42;;;3.95;;
46719;SDS011;32452;51.382;-0.002;2024-02-21T03:45:45;20.17;;;4.13;;
46719;SDS011;32452;51.382;-0.002;2024-02-21T03:48:31;17.52;;;3.03;;
46719;SDS011;32452;51.382;-0.002;2024-02-21T03:51:16;24.58;;;3.50;;
46719;SDS011;32452;51.382;-0.002;2024-02-21T03:54:02;20.95;;;3.88;;
46719;SDS011;32452;51.382;-0.002;2024-02-21T03:56:47;17.83;;;3.13;;
46719;SDS011;32452;51.382;-0.002;2024-02-21T03:59:33;15.43;;;2.72;;
46719;SDS011;32452;51.382;-0.002;2024-02-21T04:02:19;18.45;;;3.55;;
46719;SDS011;32452;51.382;-0.002;2024-02-21T04:05:05;13.73;;;2.65;;
46719;SDS011;32452;51.382;-0.002;2024-02-21T04:07:51;14.60;;;3.78;;
46719;SDS011;32452;51.382;-0.002;2024-02-21T04:10:38;11.70;;;2.88;;
46719;SDS011;32452;51.382;-0.002;2024-02-21T04:13:24;18.65;;;3.65;;
46719;SDS011;32452;51.382;-0.002;2024-02-21T04:16:10;15.43;;;2.60;;
46719;SDS011;32452;51.382;-0.002;2024-02-21T04:18:56;11.73;;;3.10;;
46719;SDS011;32452;51.382;-0.002;2024-02-21T04:21:42;16.55;;;4.55;;
46719;SDS011;32452;51.382;-0.002;2024-02-21T04:24:27;17.75;;;3.40;;
46719;SDS011;32452;51.382;-0.002;2024-02-21T04:27:13;17.48;;;3.83;;
46719;SDS011;32452;51.382;-0.002;2024-02-21T04:29:58;14.50;;;2.53;;
46719;SDS011;32452;51.382;-0.002;2024-02-21T04:32:45;12.45;;;3.08;;
46719;SDS011;32452;51.382;-0.002;2024-02-21T04:35:30;14.52;;;2.65;;
46719;SDS011;32452;51.382;-0.002;2024-02-21T04:38:16;15.60;;;2.72;;
46719;SDS011;32452;51.382;-0.002;2024-02-21T04:41:02;15.20;;;4.07;;
46719;SDS011;32452;51.382;-0.002;2024-02-21T04:44:00;12.63;;;2.30;;
46719;SDS011;32452;51.382;-0.002;2024-02-21T04:46:50;16.70;;;2.83;;
46719;SDS011;32452;51.382;-0.002;2024-02-21T04:49:47;8.65;;;2.35;;
46719;SDS011;32452;51.382;-0.002;2024-02-21T04:52:42;14.93;;;2.97;;
46719;SDS011;32452;51.382;-0.002;2024-02-21T04:55:31;7.00;;;2.30;;
46719;SDS011;32452;51.382;-0.002;2024-02-21T04:58:24;7.97;;;2.17;;
46719;SDS011;32452;51.382;-0.002;2024-02-21T05:01:14;10.45;;;3.08;;
46719;SDS011;32452;51.382;-0.002;2024-02-21T05:04:01;11.48;;;2.53;;
46719;SDS011;32452;51.382;-0.002;2024-02-21T05:07:02;14.55;;;2.88;;
46719;SDS011;32452;51.382;-0.002;2024-02-21T05:09:50;10.73;;;2.50;;
46719;SDS011;32452;51.382;-0.002;2024-02-21T05:12:35;13.65;;;2.80;;
46719;SDS011;32452;51.382;-0.002;2024-02-21T05:15:20;17.63;;;3.20;;
46719;SDS011;32452;51.382;-0.002;2024-02-21T05:18:06;11.27;;;2.33;;
46719;SDS011;32452;51.382;-0.002;2024-02-21T05:20:52;15.75;;;3.90;;
46719;SDS011;32452;51.382;-0.002;2024-02-21T05:23:37;10.55;;;3.25;;
46719;SDS011;32452;51.382;-0.002;2024-02-21T05:26:24;11.23;;;2.42;;
46719;SDS011;32452;51.382;-0.002;2024-02-21T05:29:10;8.10;;;2.30;;
46719;SDS011;32452;51.382;-0.002;2024-02-21T05:31:56;17.90;;;2.80;;
46719;SDS011;32452;51.382;-0.002;2024-02-21T05:34:42;9.95;;;1.95;;
46719;SDS011;32452;51.382;-0.002;2024-02-21T05:37:28;20.40;;;2.97;;
46719;SDS011;32452;51.382;-0.002;2024-02-21T05:40:13;13.32;;;2.78;;
46719;SDS011;32452;51.382;-0.002;2024-02-21T05:42:59;16.77;;;3.47;;
46719;SDS011;32452;51.382;-0.002;2024-02-21T05:45:45;20.42;;;2.80;;
46719;SDS011;32452;51.382;-0.002;2024-02-21T05:48:30;16.95;;;2.55;;
46719;SDS011;32452;51.382;-0.002;2024-02-21T05:51:19;8.38;;;2.45;;
46719;SDS011;32452;51.382;-0.002;2024-02-21T05:54:05;19.23;;;4.00;;
46719;SDS011;32452;51.382;-0.002;2024-02-21T05:56:52;20.70;;;4.25;;
46719;SDS011;32452;51.382;-0.002;2024-02-21T05:59:38;15.30;;;2.72;;
46719;SDS011;32452;51.382;-0.002;2024-02-21T06:02:25;8.57;;;2.10;;
46719;SDS011;32452;51.382;-0.002;2024-02-21T06:05:11;17.30;;;3.08;;
46719;SDS011;32452;51.382;-0.002;2024-02-21T06:07:56;13.23;;;2.58;;
46719;SDS011;32452;51.382;-0.002;2024-02-21T06:10:42;14.05;;;2.70;;
46719;SDS011;32452;51.382;-0.002;2024-02-21T06:13:27;15.43;;;2.47;;
46719;SDS011;32452;51.382;-0.002;2024-02-21T06:16:13;9.52;;;1.90;;
46719;SDS011;32452;51.382;-0.002;2024-02-21T06:18:58;12.18;;;2.65;;
46719;SDS011;32452;51.382;-0.002;2024-02-21T06:21:44;19.55;;;3.15;;
46719;SDS011;32452;51.382;-0.002;2024-02-21T06:24:30;7.70;;;1.83;;
46719;SDS011;32452;51.382;-0.002;2024-02-21T06:27:15;9.40;;;2.67;;
46719;SDS011;32452;51.382;-0.002;2024-02-21T06:30:01;13.10;;;2.75;;
46719;SDS011;32452;51.382;-0.002;2024-02-21T06:32:48;6.03;;;1.50;;
46719;SDS011;32452;51.382;-0.002;2024-02-21T06:35:33;4.70;;;1.67;;
46719;SDS011;32452;51.382;-0.002;2024-02-21T06:38:19;8.27;;;1.50;;
46719;SDS011;32452;51.382;-0.002;2024-02-21T06:41:05;4.55;;;1.50;;
46719;SDS011;32452;51.382;-0.002;2024-02-21T06:43:50;4.35;;;1.80;;
46719;SDS011;32452;51.382;-0.002;2024-02-21T06:46:36;6.97;;;1.70;;
46719;SDS011;32452;51.382;-0.002;2024-02-21T06:49:22;6.07;;;1.27;;
46719;SDS011;32452;51.382;-0.002;2024-02-21T06:52:08;6.03;;;1.52;;
46719;SDS011;32452;51.382;-0.002;2024-02-21T06:54:54;4.45;;;1.30;;
46719;SDS011;32452;51.382;-0.002;2024-02-21T06:57:39;4.20;;;1.20;;
46719;SDS011;32452;51.382;-0.002;2024-02-21T07:00:29;7.57;;;1.60;;
46719;SDS011;32452;51.382;-0.002;2024-02-21T07:03:15;5.57;;;1.20;;
46719;SDS011;32452;51.382;-0.002;2024-02-21T07:06:00;7.38;;;1.40;;
46719;SDS011;32452;51.382;-0.002;2024-02-21T07:08:47;4.72;;;1.50;;
46719;SDS011;32452;51.382;-0.002;2024-02-21T07:11:32;4.45;;;1.45;;
46719;SDS011;32452;51.382;-0.002;2024-02-21T07:14:18;5.10;;;1.40;;
46719;SDS011;32452;51.382;-0.002;2024-02-21T07:17:03;3.15;;;1.20;;
46719;SDS011;32452;51.382;-0.002;2024-02-21T07:19:49;9.40;;;2.22;;
46719;SDS011;32452;51.382;-0.002;2024-02-21T07:22:35;5.78;;;1.40;;
46719;SDS011;32452;51.382;-0.002;2024-02-21T07:25:20;4.47;;;1.40;;
46719;SDS011;32452;51.382;-0.002;2024-02-21T07:28:06;5.28;;;1.80;;
46719;SDS011;32452;51.382;-0.002;2024-02-21T07:30:51;7.28;;;1.90;;
46719;SDS011;32452;51.382;-0.002;2024-02-21T07:33:37;10.60;;;1.80;;
46719;SDS011;32452;51.382;-0.002;2024-02-21T07:36:29;4.55;;;1.25;;
46719;SDS011;32452;51.382;-0.002;2024-02-21T07:39:15;5.95;;;1.48;;
46719;SDS011;32452;51.382;-0.002;2024-02-21T07:42:01;6.70;;;1.90;;
46719;SDS011;32452;51.382;-0.002;2024-02-21T07:44:46;6.53;;;1.70;;
46719;SDS011;32452;51.382;-0.002;2024-02-21T07:47:32;3.42;;;1.65;;
46719;SDS011;32452;51.382;-0.002;2024-02-21T07:50:18;6.60;;;1.63;;
46719;SDS011;32452;51.382;-0.002;2024-02-21T07:53:03;7.13;;;2.25;;
46719;SDS011;32452;51.382;-0.002;2024-02-21T07:55:49;8.93;;;2.00;;
46719;SDS011;32452;51.382;-0.002;2024-02-21T07:58:34;11.68;;;2.35;;
46719;SDS011;32452;51.382;-0.002;2024-02-21T08:01:20;7.45;;;2.17;;
46719;SDS011;32452;51.382;-0.002;2024-02-21T08:04:06;12.52;;;2.20;;
46719;SDS011;32452;51.382;-0.002;2024-02-21T08:06:55;8.63;;;2.70;;
46719;SDS011;32452;51.382;-0.002;2024-02-21T08:09:40;11.15;;;2.28;;
46719;SDS011;32452;51.382;-0.002;2024-02-21T08:12:26;9.30;;;1.50;;
46719;SDS011;32452;51.382;-0.002;2024-02-21T08:15:12;5.63;;;2.03;;
46719;SDS011;32452;51.382;-0.002;2024-02-21T08:17:57;8.30;;;2.63;;
46719;SDS011;32452;51.382;-0.002;2024-02-21T08:20:46;5.97;;;1.88;;
46719;SDS011;32452;51.382;-0.002;2024-02-21T08:23:32;6.55;;;1.80;;
46719;SDS011;32452;51.382;-0.002;2024-02-21T08:26:17;7.65;;;1.73;;
46719;SDS011;32452;51.382;-0.002;2024-02-21T08:29:03;12.98;;;2.40;;
46719;SDS011;32452;51.382;-0.002;2024-02-21T08:31:48;11.80;;;2.25;;
46719;SDS011;32452;51.382;-0.002;2024-02-21T08:34:34;8.27;;;2.00;;
46719;SDS011;32452;51.382;-0.002;2024-02-21T08:37:20;7.45;;;2.65;;
46719;SDS011;32452;51.382;-0.002;2024-02-21T08:40:06;9.50;;;1.75;;
46719;SDS011;32452;51.382;-0.002;2024-02-21T08:42:54;6.72;;;1.73;;
46719;SDS011;32452;51.382;-0.002;2024-02-21T08:45:40;9.27;;;2.60;;
46719;SDS011;32452;51.382;-0.002;2024-02-21T08:48:25;10.40;;;2.42;;
46719;SDS011;32452;51.382;-0.002;2024-02-21T08:51:11;12.23;;;2.50;;
46719;SDS011;32452;51.382;-0.002;2024-02-21T08:53:57;7.50;;;1.90;;
46719;SDS011;32452;51.382;-0.002;2024-02-21T08:56:43;10.07;;;1.75;;
46719;SDS011;32452;51.382;-0.002;2024-02-21T08:59:29;7.90;;;2.00;;
46719;SDS011;32452;51.382;-0.002;2024-02-21T09:02:15;12.70;;;2.05;;
46719;SDS011;32452;51.382;-0.002;2024-02-21T09:05:06;8.52;;;1.85;;
46719;SDS011;32452;51.382;-0.002;2024-02-21T09:07:52;6.10;;;1.75;;
46719;SDS011;32452;51.382;-0.002;2024-02-21T09:10:38;6.25;;;2.15;;
46719;SDS011;32452;51.382;-0.002;2024-02-21T09:13:24;10.52;;;1.73;;
46719;SDS011;32452;51.382;-0.002;2024-02-21T09:16:10;6.82;;;1.98;;
46719;SDS011;32452;51.382;-0.002;2024-02-21T09:18:59;11.15;;;2.10;;
46719;SDS011;32452;51.382;-0.002;2024-02-21T09:21:46;6.68;;;1.70;;
46719;SDS011;32452;51.382;-0.002;2024-02-21T09:24:31;10.00;;;2.10;;
46719;SDS011;32452;51.382;-0.002;2024-02-21T09:27:17;4.57;;;1.33;;
46719;SDS011;32452;51.382;-0.002;2024-02-21T09:30:03;9.95;;;2.35;;
46719;SDS011;32452;51.382;-0.002;2024-02-21T09:32:50;6.03;;;2.28;;
46719;SDS011;32452;51.382;-0.002;2024-02-21T09:35:35;7.68;;;2.05;;
46719;SDS011;32452;51.382;-0.002;2024-02-21T09:38:21;10.32;;;1.80;;
46719;SDS011;32452;51.382;-0.002;2024-02-21T09:41:17;11.93;;;2.30;;
46719;SDS011;32452;51.382;-0.002;2024-02-21T09:44:10;6.47;;;1.95;;
46719;SDS011;32452;51.382;-0.002;2024-02-21T09:47:02;9.80;;;3.75;;
46719;SDS011;32452;51.382;-0.002;2024-02-21T09:49:52;7.18;;;1.48;;
46719;SDS011;32452;51.382;-0.002;2024-02-21T09:52:39;6.70;;;1.52;;
46719;SDS011;32452;51.382;-0.002;2024-02-21T09:55:26;9.65;;;1.58;;
46719;SDS011;32452;51.382;-0.002;2024-02-21T09:58:14;6.45;;;1.52;;
46719;SDS011;32452;51.382;-0.002;2024-02-21T10:01:00;7.65;;;1.40;;
46719;SDS011;32452;51.382;-0.002;2024-02-21T10:03:54;9.02;;;1.45;;
46719;SDS011;32452;51.382;-0.002;2024-02-21T10:06:43;8.57;;;2.22;;
46719;SDS011;32452;51.382;-0.002;2024-02-21T10:09:29;4.80;;;0.93;;
46719;SDS011;32452;51.382;-0.002;2024-02-21T10:12:15;5.20;;;1.23;;
46719;SDS011;32452;51.382;-0.002;2024-02-21T10:15:05;8.57;;;1.27;;
46719;SDS011;32452;51.382;-0.002;2024-02-21T10:17:58;10.02;;;1.85;;
46719;SDS011;32452;51.382;-0.002;2024-02-21T10:20:45;6.35;;;2.08;;
46719;SDS011;32452;51.382;-0.002;2024-02-21T10:26:32;6.88;;;1.90;;
46719;SDS011;32452;51.382;-0.002;2024-02-21T10:29:18;3.78;;;0.65;;
46719;SDS011;32452;51.382;-0.002;2024-02-21T10:32:07;3.58;;;1.10;;
46719;SDS011;32452;51.382;-0.002;2024-02-21T10:35:00;7.25;;;1.38;;
46719;SDS011;32452;51.382;-0.002;2024-02-21T10:37:49;5.38;;;1.23;;
46719;SDS011;32452;51.382;-0.002;2024-02-21T10:40:35;3.70;;;1.15;;
46719;SDS011;32452;51.382;-0.002;2024-02-21T10:43:21;2.60;;;0.80;;
46719;SDS011;32452;51.382;-0.002;2024-02-21T10:46:07;5.88;;;0.82;;
46719;SDS011;32452;51.382;-0.002;2024-02-21T10:49:01;5.47;;;1.17;;
46719;SDS011;32452;51.382;-0.002;2024-02-21T10:52:06;7.22;;;1.77;;
46719;SDS011;32452;51.382;-0.002;2024-02-21T10:55:09;4.20;;;1.50;;
46719;SDS011;32452;51.382;-0.002;2024-02-21T10:57:57;3.45;;;0.80;;
46719;SDS011;32452;51.382;-0.002;2024-02-21T11:00:43;4.10;;;0.88;;
46719;SDS011;32452;51.382;-0.002;2024-02-21T11:03:30;6.25;;;1.23;;
46719;SDS011;32452;51.382;-0.002;2024-02-21T11:06:16;3.13;;;0.93;;
46719;SDS011;32452;51.382;-0.002;2024-02-21T11:09:04;3.85;;;0.93;;
46719;SDS011;32452;51.382;-0.002;2024-02-21T11:11:51;5.07;;;0.98;;
46719;SDS011;32452;51.382;-0.002;2024-02-21T11:14:37;3.97;;;0.90;;
46719;SDS011;32452;51.382;-0.002;2024-02-21T11:17:25;3.97;;;1.05;;
46719;SDS011;32452;51.382;-0.002;2024-02-21T11:20:12;2.42;;;0.63;;
46719;SDS011;32452;51.382;-0.002;2024-02-21T11:22:58;5.28;;;0.82;;
46719;SDS011;32452;51.382;-0.002;2024-02-21T11:25:44;2.05;;;0.60;;
46719;SDS011;32452;51.382;-0.002;2024-02-21T11:28:29;2.65;;;1.33;;
46719;SDS011;32452;51.382;-0.002;2024-02-21T11:31:15;2.88;;;1.00;;
46719;SDS011;32452;51.382;-0.002;2024-02-21T11:34:00;1.02;;;0.52;;
46719;SDS011;32452;51.382;-0.002;2024-02-21T11:36:47;4.45;;;0.85;;
46719;SDS011;32452;51.382;-0.002;2024-02-21T11:39:36;4.85;;;0.77;;
46719;SDS011;32452;51.382;-0.002;2024-02-21T11:42:27;2.17;;;0.70;;
46719;SDS011;32452;51.382;-0.002;2024-02-21T11:45:14;1.35;;;0.60;;
46719;SDS011;32452;51.382;-0.002;2024-02-21T11:48:00;3.05;;;0.60;;
46719;SDS011;32452;51.382;-0.002;2024-02-21T11:50:55;3.80;;;0.55;;
46719;SDS011;32452;51.382;-0.002;2024-02-21T11:53:41;4.33;;;1.00;;
46719;SDS011;32452;51.382;-0.002;2024-02-21T11:59:30;5.22;;;1.02;;
46719;SDS011;32452;51.382;-0.002;2024-02-21T12:02:18;4.78;;;0.55;;
46719;SDS011;32452;51.382;-0.002;2024-02-21T12:05:04;3.25;;;0.40;;
46719;SDS011;32452;51.382;-0.002;2024-02-21T12:07:51;3.03;;;0.60;;
46719;SDS011;32452;51.382;-0.002;2024-02-21T12:10:37;2.42;;;0.60;;
46719;SDS011;32452;51.382;-0.002;2024-02-21T12:13:24;4.60;;;0.80;;
46719;SDS011;32452;51.382;-0.002;2024-02-21T12:16:10;2.20;;;0.50;;
46719;SDS011;32452;51.382;-0.002;2024-02-21T12:18:56;1.70;;;0.70;;
46719;SDS011;32452;51.382;-0.002;2024-02-21T12:21:43;5.85;;;0.85;;
46719;SDS011;32452;51.382;-0.002;2024-02-21T12:24:29;1.63;;;0.43;;
46719;SDS011;32452;51.382;-0.002;2024-02-21T12:27:15;2.55;;;0.63;;
46719;SDS011;32452;51.382;-0.002;2024-02-21T12:30:01;2.35;;;0.60;;
46719;SDS011;32452;51.382;-0.002;2024-02-21T12:32:48;3.55;;;0.60;;
46719;SDS011;32452;51.382;-0.002;2024-02-21T12:35:34;2.63;;;0.70;;
46719;SDS011;32452;51.382;-0.002;2024-02-21T12:38:20;3.40;;;0.88;;
46719;SDS011;32452;51.382;-0.002;2024-02-21T12:41:05;7.50;;;0.80;;
46719;SDS011;32452;51.382;-0.002;2024-02-21T12:43:52;1.23;;;0.60;;
46719;SDS011;32452;51.382;-0.002;2024-02-21T12:46:39;0.90;;;0.30;;
46719;SDS011;32452;51.382;-0.002;2024-02-21T12:49:27;1.00;;;0.70;;
46719;SDS011;32452;51.382;-0.002;2024-02-21T12:52:15;3.03;;;0.50;;
46719;SDS011;32452;51.382;-0.002;2024-02-21T12:55:01;3.85;;;0.50;;
46719;SDS011;32452;51.382;-0.002;2024-02-21T12:57:47;2.03;;;0.30;;
46719;SDS011;32452;51.382;-0.002;2024-02-21T13:00:35;4.57;;;0.75;;
46719;SDS011;32452;51.382;-0.002;2024-02-21T13:03:21;2.15;;;0.60;;
46719;SDS011;32452;51.382;-0.002;2024-02-21T13:06:06;4.72;;;0.57;;
46719;SDS011;32452;51.382;-0.002;2024-02-21T13:08:55;1.38;;;0.40;;
46719;SDS011;32452;51.382;-0.002;2024-02-21T13:11:41;2.72;;;0.60;;
46719;SDS011;32452;51.382;-0.002;2024-02-21T13:14:29;1.58;;;0.60;;
46719;SDS011;32452;51.382;-0.002;2024-02-21T13:17:15;2.38;;;0.55;;
46719;SDS011;32452;51.382;-0.002;2024-02-21T13:20:01;1.10;;;0.30;;
46719;SDS011;32452;51.382;-0.002;2024-02-21T13:22:47;1.48;;;0.30;;
46719;SDS011;32452;51.382;-0.002;2024-02-21T13:25:33;2.95;;;0.77;;
46719;SDS011;32452;51.382;-0.002;2024-02-21T13:28:19;2.25;;;0.35;;
46719;SDS011;32452;51.382;-0.002;2024-02-21T13:31:05;1.00;;;0.20;;
46719;SDS011;32452;51.382;-0.002;2024-02-21T13:33:50;2.60;;;0.45;;
46719;SDS011;32452;51.382;-0.002;2024-02-21T13:36:37;1.40;;;0.45;;
46719;SDS011;32452;51.382;-0.002;2024-02-21T13:39:22;2.40;;;0.60;;
46719;SDS011;32452;51.382;-0.002;2024-02-21T13:42:08;2.53;;;0.35;;
46719;SDS011;32452;51.382;-0.002;2024-02-21T13:44:53;2.55;;;0.30;;
46719;SDS011;32452;51.382;-0.002;2024-02-21T13:47:39;3.38;;;0.40;;
46719;SDS011;32452;51.382;-0.002;2024-02-21T13:50:29;3.15;;;0.70;;
46719;SDS011;32452;51.382;-0.002;2024-02-21T13:53:16;2.97;;;0.35;;
46719;SDS011;32452;51.382;-0.002;2024-02-21T13:56:03;0.65;;;0.40;;
46719;SDS011;32452;51.382;-0.002;2024-02-21T13:58:49;3.88;;;0.63;;
46719;SDS011;32452;51.382;-0.002;2024-02-21T14:01:36;1.25;;;0.43;;
46719;SDS011;32452;51.382;-0.002;2024-02-21T14:04:22;4.72;;;0.60;;
46719;SDS011;32452;51.382;-0.002;2024-02-21T14:07:08;4.40;;;0.80;;
46719;SDS011;32452;51.382;-0.002;2024-02-21T14:09:53;2.72;;;0.40;;
46719;SDS011;32452;51.382;-0.002;2024-02-21T14:12:39;5.10;;;0.60;;
46719;SDS011;32452;51.382;-0.002;2024-02-21T14:15:25;5.68;;;0.60;;
46719;SDS011;32452;51.382;-0.002;2024-02-21T14:18:10;4.47;;;0.65;;
46719;SDS011;32452;51.382;-0.002;2024-02-21T14:20:56;4.68;;;0.60;;
46719;SDS011;32452;51.382;-0.002;2024-02-21T14:23:42;2.70;;;0.65;;
46719;SDS011;32452;51.382;-0.002;2024-02-21T14:26:28;4.45;;;0.57;;
46719;SDS011;32452;51.382;-0.002;2024-02-21T14:29:15;2.97;;;0.88;;
46719;SDS011;32452;51.382;-0.002;2024-02-21T14:32:01;3.40;;;0.88;;
46719;SDS011;32452;51.382;-0.002;2024-02-21T14:34:47;2.30;;;0.60;;
46719;SDS011;32452;51.382;-0.002;2024-02-21T14:37:34;5.82;;;0.57;;
46719;SDS011;32452;51.382;-0.002;2024-02-21T14:40:19;2.30;;;0.60;;
46719;SDS011;32452;51.382;-0.002;2024-02-21T14:43:06;2.58;;;0.45;;
46719;SDS011;32452;51.382;-0.002;2024-02-21T14:45:51;2.70;;;0.47;;
46719;SDS011;32452;51.382;-0.002;2024-02-21T14:48:37;1.25;;;0.50;;
46719;SDS011;32452;51.382;-0.002;2024-02-21T14:51:23;3.28;;;0.50;;
46719;SDS011;32452;51.382;-0.002;2024-02-21T14:54:08;1.55;;;0.45;;
46719;SDS011;32452;51.382;-0.002;2024-02-21T14:56:55;1.75;;;0.52;;
46719;SDS011;32452;51.382;-0.002;2024-02-21T14:59:41;3.08;;;0.30;;
46719;SDS011;32452;51.382;-0.002;2024-02-21T15:02:26;6.68;;;1.52;;
46719;SDS011;32452;51.382;-0.002;2024-02-21T15:05:14;2.40;;;0.50;;
46719;SDS011;32452;51.382;-0.002;2024-02-21T15:07:59;1.63;;;0.40;;
46719;SDS011;32452;51.382;-0.002;2024-02-21T15:10:45;3.53;;;0.75;;
46719;SDS011;32452;51.382;-0.002;2024-02-21T15:13:31;5.43;;;0.50;;
46719;SDS011;32452;51.382;-0.002;2024-02-21T15:16:16;2.33;;;1.10;;
46719;SDS011;32452;51.382;-0.002;2024-02-21T15:19:02;1.80;;;0.50;;
46719;SDS011;32452;51.382;-0.002;2024-02-21T15:21:50;3.03;;;0.70;;
46719;SDS011;32452;51.382;-0.002;2024-02-21T15:24:42;2.83;;;0.68;;
46719;SDS011;32452;51.382;-0.002;2024-02-21T15:27:38;1.88;;;0.38;;
46719;SDS011;32452;51.382;-0.002;2024-02-21T15:30:33;5.07;;;0.75;;
46719;SDS011;32452;51.382;-0.002;2024-02-21T15:33:20;6.50;;;0.68;;
46719;SDS011;32452;51.382;-0.002;2024-02-21T15:36:06;3.55;;;0.90;;
46719;SDS011;32452;51.382;-0.002;2024-02-21T15:38:52;2.90;;;0.50;;
46719;SDS011;32452;51.382;-0.002;2024-02-21T15:41:38;3.05;;;0.70;;
46719;SDS011;32452;51.382;-0.002;2024-02-21T15:44:24;7.85;;;1.52;;
46719;SDS011;32452;51.382;-0.002;2024-02-21T15:47:09;5.57;;;0.80;;
46719;SDS011;32452;51.382;-0.002;2024-02-21T15:49:55;3.67;;;0.73;;
46719;SDS011;32452;51.382;-0.002;2024-02-21T15:52:41;5.82;;;1.30;;
46719;SDS011;32452;51.382;-0.002;2024-02-21T15:55:27;0.65;;;0.47;;
46719;SDS011;32452;51.382;-0.002;2024-02-21T15:58:14;4.53;;;0.73;;
46719;SDS011;32452;51.382;-0.002;2024-02-21T16:01:00;2.38;;;0.63;;
46719;SDS011;32452;51.382;-0.002;2024-02-21T16:03:46;5.55;;;1.30;;
46719;SDS011;32452;51.382;-0.002;2024-02-21T16:06:32;2.28;;;0.70;;
46719;SDS011;32452;51.382;-0.002;2024-02-21T16:09:17;3.45;;;0.65;;
46719;SDS011;32452;51.382;-0.002;2024-02-21T16:12:03;3.58;;;0.60;;
46719;SDS011;32452;51.382;-0.002;2024-02-21T16:14:50;2.10;;;0.63;;
46719;SDS011;32452;51.382;-0.002;2024-02-21T16:17:36;3.45;;;1.10;;
46719;SDS011;32452;51.382;-0.002;2024-02-21T16:20:24;5.35;;;0.80;;
46719;SDS011;32452;51.382;-0.002;2024-02-21T16:23:10;2.05;;;0.90;;
46719;SDS011;32452;51.382;-0.002;2024-02-21T16:25:56;5.93;;;0.90;;
46719;SDS011;32452;51.382;-0.002;2024-02-21T16:28:42;1.30;;;0.50;;